sensor_id;sensor_type;location;lat;lon;timestamp;temperature;humidity
6357;DHT22;3211;53.452;-2.264;2023-05-18T00:00:59;13.40;99.90
6357;DHT22;3211;53.452;-2.264;2023-05-18T00:03:43;13.40;99.90
6357;DHT22;3211;53.452;-2.264;2023-05-18T00:06:25;13.40;99.90
6357;DHT22;3211;53.452;-2.264;2023-05-18T00:09:07;13.40;99.90
6357;DHT22;3211;53.452;-2.264;2023-05-18T00:11:49;13.40;99.90
6357;DHT22;3211;53.452;-2.264;2023-05-18T00:14:31;13.40;99.90
6357;DHT22;3211;53.452;-2.264;2023-05-18T00:17:15;13.40;99.90
6357;DHT22;3211;53.452;-2.264;2023-05-18T00:19:56;13.30;99.90
6357;DHT22;3211;53.452;-2.264;2023-05-18T00:22:40;13.30;99.90
6357;DHT22;3211;53.452;-2.264;2023-05-18T00:25:23;13.30;99.90
6357;DHT22;3211;53.452;-2.264;2023-05-18T00:28:05;13.30;99.90
6357;DHT22;3211;53.452;-2.264;2023-05-18T00:30:47;13.40;99.90
6357;DHT22;3211;53.452;-2.264;2023-05-18T00:33:30;13.30;99.90
6357;DHT22;3211;53.452;-2.264;2023-05-18T00:36:12;13.30;99.90
6357;DHT22;3211;53.452;-2.264;2023-05-18T00:38:54;13.30;99.90
6357;DHT22;3211;53.452;-2.264;2023-05-18T00:41:36;13.30;99.90
6357;DHT22;3211;53.452;-2.264;2023-05-18T00:44:18;13.30;99.90
6357;DHT22;3211;53.452;-2.264;2023-05-18T00:47:00;13.30;99.90
6357;DHT22;3211;53.452;-2.264;2023-05-18T00:49:44;13.30;99.90
6357;DHT22;3211;53.452;-2.264;2023-05-18T00:52:27;13.20;99.90
6357;DHT22;3211;53.452;-2.264;2023-05-18T00:55:11;13.20;99.90
6357;DHT22;3211;53.452;-2.264;2023-05-18T00:57:54;13.30;99.90
6357;DHT22;3211;53.452;-2.264;2023-05-18T01:00:36;13.20;99.90
6357;DHT22;3211;53.452;-2.264;2023-05-18T01:03:18;13.20;99.90
6357;DHT22;3211;53.452;-2.264;2023-05-18T01:06:07;13.20;99.90
6357;DHT22;3211;53.452;-2.264;2023-05-18T01:08:53;13.20;99.90
6357;DHT22;3211;53.452;-2.264;2023-05-18T01:11:43;13.20;99.90
6357;DHT22;3211;53.452;-2.264;2023-05-18T01:14:33;13.20;99.90
6357;DHT22;3211;53.452;-2.264;2023-05-18T01:17:24;13.20;99.90
6357;DHT22;3211;53.452;-2.264;2023-05-18T01:20:16;13.20;99.90
6357;DHT22;3211;53.452;-2.264;2023-05-18T01:26:25;13.10;99.90
6357;DHT22;3211;53.452;-2.264;2023-05-18T01:29:12;13.10;99.90
6357;DHT22;3211;53.452;-2.264;2023-05-18T01:31:54;13.20;99.90
6357;DHT22;3211;53.452;-2.264;2023-05-18T01:34:36;13.10;99.90
6357;DHT22;3211;53.452;-2.264;2023-05-18T01:37:18;13.10;99.90
6357;DHT22;3211;53.452;-2.264;2023-05-18T01:40:00;13.10;99.90
6357;DHT22;3211;53.452;-2.264;2023-05-18T01:42:48;13.10;99.90
6357;DHT22;3211;53.452;-2.264;2023-05-18T01:45:32;13.00;99.90
6357;DHT22;3211;53.452;-2.264;2023-05-18T01:48:19;12.90;99.90
6357;DHT22;3211;53.452;-2.264;2023-05-18T01:51:04;12.90;99.90
6357;DHT22;3211;53.452;-2.264;2023-05-18T01:53:51;13.00;99.90
6357;DHT22;3211;53.452;-2.264;2023-05-18T01:56:36;13.00;99.90
6357;DHT22;3211;53.452;-2.264;2023-05-18T01:59:21;12.90;99.90
6357;DHT22;3211;53.452;-2.264;2023-05-18T02:02:04;12.90;99.90
6357;DHT22;3211;53.452;-2.264;2023-05-18T02:04:46;12.90;99.90
6357;DHT22;3211;53.452;-2.264;2023-05-18T02:07:29;12.70;99.90
6357;DHT22;3211;53.452;-2.264;2023-05-18T02:10:11;12.70;99.90
6357;DHT22;3211;53.452;-2.264;2023-05-18T02:12:53;12.70;99.90
6357;DHT22;3211;53.452;-2.264;2023-05-18T02:15:37;12.70;99.90
6357;DHT22;3211;53.452;-2.264;2023-05-18T02:18:19;12.70;99.90
6357;DHT22;3211;53.452;-2.264;2023-05-18T02:21:01;12.60;99.90
6357;DHT22;3211;53.452;-2.264;2023-05-18T02:23:43;12.70;99.90
6357;DHT22;3211;53.452;-2.264;2023-05-18T02:26:25;12.60;99.90
6357;DHT22;3211;53.452;-2.264;2023-05-18T02:29:07;12.60;99.90
6357;DHT22;3211;53.452;-2.264;2023-05-18T02:31:52;12.60;99.90
6357;DHT22;3211;53.452;-2.264;2023-05-18T02:34:34;12.50;99.90
6357;DHT22;3211;53.452;-2.264;2023-05-18T02:37:17;12.50;99.90
6357;DHT22;3211;53.452;-2.264;2023-05-18T02:39:59;12.50;99.90
6357;DHT22;3211;53.452;-2.264;2023-05-18T02:42:41;12.50;99.90
6357;DHT22;3211;53.452;-2.264;2023-05-18T02:45:23;12.50;99.90
6357;DHT22;3211;53.452;-2.264;2023-05-18T02:48:07;12.40;99.90
6357;DHT22;3211;53.452;-2.264;2023-05-18T02:50:49;12.40;99.90
6357;DHT22;3211;53.452;-2.264;2023-05-18T02:53:31;12.30;99.90
6357;DHT22;3211;53.452;-2.264;2023-05-18T02:56:12;12.30;99.90
6357;DHT22;3211;53.452;-2.264;2023-05-18T02:58:54;12.30;99.90
6357;DHT22;3211;53.452;-2.264;2023-05-18T03:01:37;12.30;99.90
6357;DHT22;3211;53.452;-2.264;2023-05-18T03:04:21;12.30;99.90
6357;DHT22;3211;53.452;-2.264;2023-05-18T03:07:05;12.30;99.90
6357;DHT22;3211;53.452;-2.264;2023-05-18T03:09:47;12.30;99.90
6357;DHT22;3211;53.452;-2.264;2023-05-18T03:12:29;12.20;99.90
6357;DHT22;3211;53.452;-2.264;2023-05-18T03:15:11;12.20;99.90
6357;DHT22;3211;53.452;-2.264;2023-05-18T03:17:55;12.20;99.90
6357;DHT22;3211;53.452;-2.264;2023-05-18T03:20:40;12.20;99.90
6357;DHT22;3211;53.452;-2.264;2023-05-18T03:23:22;12.20;99.90
6357;DHT22;3211;53.452;-2.264;2023-05-18T03:26:06;12.30;99.90
6357;DHT22;3211;53.452;-2.264;2023-05-18T03:28:51;12.20;99.90
6357;DHT22;3211;53.452;-2.264;2023-05-18T03:31:32;12.20;99.90
6357;DHT22;3211;53.452;-2.264;2023-05-18T03:34:14;12.20;99.90
6357;DHT22;3211;53.452;-2.264;2023-05-18T03:36:58;12.20;99.90
6357;DHT22;3211;53.452;-2.264;2023-05-18T03:39:40;12.20;99.90
6357;DHT22;3211;53.452;-2.264;2023-05-18T03:42:22;12.20;99.90
6357;DHT22;3211;53.452;-2.264;2023-05-18T03:45:06;12.20;99.90
6357;DHT22;3211;53.452;-2.264;2023-05-18T03:47:48;12.20;99.90
6357;DHT22;3211;53.452;-2.264;2023-05-18T03:50:31;12.10;99.90
6357;DHT22;3211;53.452;-2.264;2023-05-18T03:53:14;12.10;99.90
6357;DHT22;3211;53.452;-2.264;2023-05-18T03:55:58;12.10;99.90
6357;DHT22;3211;53.452;-2.264;2023-05-18T03:58:40;12.10;99.90
6357;DHT22;3211;53.452;-2.264;2023-05-18T04:01:23;12.10;99.90
6357;DHT22;3211;53.452;-2.264;2023-05-18T04:04:05;12.10;99.90
6357;DHT22;3211;53.452;-2.264;2023-05-18T04:06:48;12.10;99.90
6357;DHT22;3211;53.452;-2.264;2023-05-18T04:09:33;12.10;99.90
6357;DHT22;3211;53.452;-2.264;2023-05-18T04:12:15;12.20;99.90
6357;DHT22;3211;53.452;-2.264;2023-05-18T04:14:58;12.20;99.90
6357;DHT22;3211;53.452;-2.264;2023-05-18T04:17:40;12.20;99.90
6357;DHT22;3211;53.452;-2.264;2023-05-18T04:20:24;12.20;99.90
6357;DHT22;3211;53.452;-2.264;2023-05-18T04:23:07;12.20;99.90
6357;DHT22;3211;53.452;-2.264;2023-05-18T04:25:51;12.20;99.90
6357;DHT22;3211;53.452;-2.264;2023-05-18T04:28:34;12.20;99.90
6357;DHT22;3211;53.452;-2.264;2023-05-18T04:31:17;12.20;99.90
6357;DHT22;3211;53.452;-2.264;2023-05-18T04:33:59;12.20;99.90
6357;DHT22;3211;53.452;-2.264;2023-05-18T04:36:41;12.20;99.90
6357;DHT22;3211;53.452;-2.264;2023-05-18T04:39:24;12.20;99.90
6357;DHT22;3211;53.452;-2.264;2023-05-18T04:42:08;12.30;99.90
6357;DHT22;3211;53.452;-2.264;2023-05-18T04:44:50;12.30;99.90
6357;DHT22;3211;53.452;-2.264;2023-05-18T04:47:33;12.20;99.90
6357;DHT22;3211;53.452;-2.264;2023-05-18T04:50:16;12.30;99.90
6357;DHT22;3211;53.452;-2.264;2023-05-18T04:52:58;12.30;99.90
6357;DHT22;3211;53.452;-2.264;2023-05-18T04:55:41;12.30;99.90
6357;DHT22;3211;53.452;-2.264;2023-05-18T04:58:25;12.30;99.90
6357;DHT22;3211;53.452;-2.264;2023-05-18T05:01:07;12.30;99.90
6357;DHT22;3211;53.452;-2.264;2023-05-18T05:03:49;12.30;99.90
6357;DHT22;3211;53.452;-2.264;2023-05-18T05:06:30;12.40;99.90
6357;DHT22;3211;53.452;-2.264;2023-05-18T05:09:12;12.50;99.90
6357;DHT22;3211;53.452;-2.264;2023-05-18T05:11:54;12.60;99.90
6357;DHT22;3211;53.452;-2.264;2023-05-18T05:14:38;12.60;99.90
6357;DHT22;3211;53.452;-2.264;2023-05-18T05:17:21;12.60;99.90
6357;DHT22;3211;53.452;-2.264;2023-05-18T05:20:04;12.60;99.90
6357;DHT22;3211;53.452;-2.264;2023-05-18T05:22:46;12.50;99.90
6357;DHT22;3211;53.452;-2.264;2023-05-18T05:25:28;12.60;99.90
6357;DHT22;3211;53.452;-2.264;2023-05-18T05:28:10;12.60;99.90
6357;DHT22;3211;53.452;-2.264;2023-05-18T05:30:53;12.80;99.90
6357;DHT22;3211;53.452;-2.264;2023-05-18T05:33:35;12.70;99.90
6357;DHT22;3211;53.452;-2.264;2023-05-18T05:36:17;12.80;99.90
6357;DHT22;3211;53.452;-2.264;2023-05-18T05:38:59;12.80;99.90
6357;DHT22;3211;53.452;-2.264;2023-05-18T05:41:41;12.80;99.90
6357;DHT22;3211;53.452;-2.264;2023-05-18T05:44:23;12.80;99.90
6357;DHT22;3211;53.452;-2.264;2023-05-18T05:47:06;12.80;99.90
6357;DHT22;3211;53.452;-2.264;2023-05-18T05:49:49;12.80;99.90
6357;DHT22;3211;53.452;-2.264;2023-05-18T05:52:31;12.70;99.90
6357;DHT22;3211;53.452;-2.264;2023-05-18T05:55:13;12.70;99.90
6357;DHT22;3211;53.452;-2.264;2023-05-18T05:57:55;12.80;99.90
6357;DHT22;3211;53.452;-2.264;2023-05-18T06:00:37;12.80;99.90
6357;DHT22;3211;53.452;-2.264;2023-05-18T06:03:20;12.80;99.90
6357;DHT22;3211;53.452;-2.264;2023-05-18T06:06:03;12.80;99.90
6357;DHT22;3211;53.452;-2.264;2023-05-18T06:08:45;12.90;99.90
6357;DHT22;3211;53.452;-2.264;2023-05-18T06:11:27;12.80;99.90
6357;DHT22;3211;53.452;-2.264;2023-05-18T06:14:09;12.90;99.90
6357;DHT22;3211;53.452;-2.264;2023-05-18T06:16:51;12.90;99.90
6357;DHT22;3211;53.452;-2.264;2023-05-18T06:19:35;12.90;99.90
6357;DHT22;3211;53.452;-2.264;2023-05-18T06:22:17;13.00;99.90
6357;DHT22;3211;53.452;-2.264;2023-05-18T06:24:59;13.10;99.90
6357;DHT22;3211;53.452;-2.264;2023-05-18T06:27:41;13.10;99.90
6357;DHT22;3211;53.452;-2.264;2023-05-18T06:30:23;13.20;99.90
6357;DHT22;3211;53.452;-2.264;2023-05-18T06:33:06;13.20;99.90
6357;DHT22;3211;53.452;-2.264;2023-05-18T06:35:49;13.40;99.90
6357;DHT22;3211;53.452;-2.264;2023-05-18T06:38:32;13.30;99.90
6357;DHT22;3211;53.452;-2.264;2023-05-18T06:41:14;13.40;99.90
6357;DHT22;3211;53.452;-2.264;2023-05-18T06:43:56;13.40;99.90
6357;DHT22;3211;53.452;-2.264;2023-05-18T06:46:39;13.40;99.90
6357;DHT22;3211;53.452;-2.264;2023-05-18T06:49:21;13.40;99.90
6357;DHT22;3211;53.452;-2.264;2023-05-18T06:52:05;13.40;99.90
6357;DHT22;3211;53.452;-2.264;2023-05-18T06:54:49;13.40;99.90
6357;DHT22;3211;53.452;-2.264;2023-05-18T06:57:31;13.50;99.90
6357;DHT22;3211;53.452;-2.264;2023-05-18T07:00:14;13.60;99.90
6357;DHT22;3211;53.452;-2.264;2023-05-18T07:02:56;13.50;99.90
6357;DHT22;3211;53.452;-2.264;2023-05-18T07:05:38;13.40;99.90
6357;DHT22;3211;53.452;-2.264;2023-05-18T07:08:22;13.40;99.90
6357;DHT22;3211;53.452;-2.264;2023-05-18T07:11:04;13.50;99.90
6357;DHT22;3211;53.452;-2.264;2023-05-18T07:13:46;13.50;99.90
6357;DHT22;3211;53.452;-2.264;2023-05-18T07:16:28;13.40;99.90
6357;DHT22;3211;53.452;-2.264;2023-05-18T07:19:10;13.40;99.90
6357;DHT22;3211;53.452;-2.264;2023-05-18T07:21:52;13.50;99.90
6357;DHT22;3211;53.452;-2.264;2023-05-18T07:24:35;13.40;99.90
6357;DHT22;3211;53.452;-2.264;2023-05-18T07:27:17;13.40;99.90
6357;DHT22;3211;53.452;-2.264;2023-05-18T07:29:59;13.40;99.90
6357;DHT22;3211;53.452;-2.264;2023-05-18T07:32:41;13.50;99.90
6357;DHT22;3211;53.452;-2.264;2023-05-18T07:35:24;13.40;99.90
6357;DHT22;3211;53.452;-2.264;2023-05-18T07:38:07;13.40;99.90
6357;DHT22;3211;53.452;-2.264;2023-05-18T07:40:50;13.40;99.90
6357;DHT22;3211;53.452;-2.264;2023-05-18T07:43:32;13.50;99.90
6357;DHT22;3211;53.452;-2.264;2023-05-18T07:46:14;13.70;99.90
6357;DHT22;3211;53.452;-2.264;2023-05-18T07:48:56;13.60;99.90
6357;DHT22;3211;53.452;-2.264;2023-05-18T07:51:38;13.60;99.90
6357;DHT22;3211;53.452;-2.264;2023-05-18T07:54:21;13.50;99.90
6357;DHT22;3211;53.452;-2.264;2023-05-18T07:57:05;13.60;99.90
6357;DHT22;3211;53.452;-2.264;2023-05-18T07:59:47;13.60;99.90
6357;DHT22;3211;53.452;-2.264;2023-05-18T08:02:29;13.80;99.90
6357;DHT22;3211;53.452;-2.264;2023-05-18T08:05:11;14.00;99.90
6357;DHT22;3211;53.452;-2.264;2023-05-18T08:07:54;13.90;99.90
6357;DHT22;3211;53.452;-2.264;2023-05-18T08:10:36;14.10;99.90
6357;DHT22;3211;53.452;-2.264;2023-05-18T08:13:19;14.20;99.90
6357;DHT22;3211;53.452;-2.264;2023-05-18T08:16:01;14.20;99.90
6357;DHT22;3211;53.452;-2.264;2023-05-18T08:18:43;14.30;99.90
6357;DHT22;3211;53.452;-2.264;2023-05-18T08:21:25;14.50;99.90
6357;DHT22;3211;53.452;-2.264;2023-05-18T08:24:08;14.60;99.90
6357;DHT22;3211;53.452;-2.264;2023-05-18T08:26:50;14.80;99.90
6357;DHT22;3211;53.452;-2.264;2023-05-18T08:29:33;14.80;99.90
6357;DHT22;3211;53.452;-2.264;2023-05-18T08:32:15;14.90;99.90
6357;DHT22;3211;53.452;-2.264;2023-05-18T08:34:57;15.10;99.90
6357;DHT22;3211;53.452;-2.264;2023-05-18T08:37:40;15.20;99.90
6357;DHT22;3211;53.452;-2.264;2023-05-18T08:40:22;15.30;99.90
6357;DHT22;3211;53.452;-2.264;2023-05-18T08:43:17;15.50;96.80
6357;DHT22;3211;53.452;-2.264;2023-05-18T08:46:09;15.70;80.20
6357;DHT22;3211;53.452;-2.264;2023-05-18T08:48:54;15.90;69.00
6357;DHT22;3211;53.452;-2.264;2023-05-18T08:51:39;15.90;42.10
6357;DHT22;3211;53.452;-2.264;2023-05-18T08:54:25;15.90;45.10
6357;DHT22;3211;53.452;-2.264;2023-05-18T08:57:08;16.00;36.50
6357;DHT22;3211;53.452;-2.264;2023-05-18T08:59:52;16.00;29.70
6357;DHT22;3211;53.452;-2.264;2023-05-18T09:02:37;16.10;26.60
6357;DHT22;3211;53.452;-2.264;2023-05-18T09:05:20;16.20;38.00
6357;DHT22;3211;53.452;-2.264;2023-05-18T09:08:05;16.40;55.70
6357;DHT22;3211;53.452;-2.264;2023-05-18T09:10:49;16.60;30.70
6357;DHT22;3211;53.452;-2.264;2023-05-18T09:13:32;16.40;20.80
6357;DHT22;3211;53.452;-2.264;2023-05-18T09:16:14;16.50;27.90
6357;DHT22;3211;53.452;-2.264;2023-05-18T09:18:57;16.50;20.00
6357;DHT22;3211;53.452;-2.264;2023-05-18T09:21:39;16.30;20.20
6357;DHT22;3211;53.452;-2.264;2023-05-18T09:24:21;16.30;31.70
6357;DHT22;3211;53.452;-2.264;2023-05-18T09:27:04;16.40;32.70
6357;DHT22;3211;53.452;-2.264;2023-05-18T09:29:53;16.40;28.30
6357;DHT22;3211;53.452;-2.264;2023-05-18T09:32:36;16.60;34.30
6357;DHT22;3211;53.452;-2.264;2023-05-18T09:35:19;16.70;27.90
6357;DHT22;3211;53.452;-2.264;2023-05-18T09:38:02;16.70;23.80
6357;DHT22;3211;53.452;-2.264;2023-05-18T09:40:45;16.80;15.30
6357;DHT22;3211;53.452;-2.264;2023-05-18T09:43:28;16.90;16.00
6357;DHT22;3211;53.452;-2.264;2023-05-18T09:46:11;17.00;22.20
6357;DHT22;3211;53.452;-2.264;2023-05-18T09:48:54;17.10;22.90
6357;DHT22;3211;53.452;-2.264;2023-05-18T09:51:38;17.30;21.90
6357;DHT22;3211;53.452;-2.264;2023-05-18T09:54:20;17.40;12.50
6357;DHT22;3211;53.452;-2.264;2023-05-18T09:57:02;17.40;11.00
6357;DHT22;3211;53.452;-2.264;2023-05-18T09:59:44;17.20;11.20
6357;DHT22;3211;53.452;-2.264;2023-05-18T10:02:31;17.30;17.70
6357;DHT22;3211;53.452;-2.264;2023-05-18T10:05:19;17.50;8.30
6357;DHT22;3211;53.452;-2.264;2023-05-18T10:08:03;17.30;6.70
6357;DHT22;3211;53.452;-2.264;2023-05-18T10:10:48;17.30;12.80
6357;DHT22;3211;53.452;-2.264;2023-05-18T10:13:31;17.50;8.20
6357;DHT22;3211;53.452;-2.264;2023-05-18T10:16:14;17.40;3.60
6357;DHT22;3211;53.452;-2.264;2023-05-18T10:18:57;17.50;10.40
6357;DHT22;3211;53.452;-2.264;2023-05-18T10:21:41;17.60;9.90
6357;DHT22;3211;53.452;-2.264;2023-05-18T10:24:25;17.80;1.00
6357;DHT22;3211;53.452;-2.264;2023-05-18T10:27:09;17.70;1.70
6357;DHT22;3211;53.452;-2.264;2023-05-18T10:29:52;17.80;1.00
6357;DHT22;3211;53.452;-2.264;2023-05-18T10:32:35;17.80;1.00
6357;DHT22;3211;53.452;-2.264;2023-05-18T10:35:17;18.30;1.00
6357;DHT22;3211;53.452;-2.264;2023-05-18T10:38:01;18.70;1.00
6357;DHT22;3211;53.452;-2.264;2023-05-18T10:40:49;18.70;1.00
6357;DHT22;3211;53.452;-2.264;2023-05-18T10:43:32;18.70;1.00
6357;DHT22;3211;53.452;-2.264;2023-05-18T10:46:14;19.00;1.00
6357;DHT22;3211;53.452;-2.264;2023-05-18T10:48:58;19.20;1.00
6357;DHT22;3211;53.452;-2.264;2023-05-18T10:51:41;19.10;1.00
6357;DHT22;3211;53.452;-2.264;2023-05-18T10:54:27;19.20;1.00
6357;DHT22;3211;53.452;-2.264;2023-05-18T10:57:13;19.10;1.00
6357;DHT22;3211;53.452;-2.264;2023-05-18T10:59:57;19.10;1.00
6357;DHT22;3211;53.452;-2.264;2023-05-18T11:02:40;18.90;1.00
6357;DHT22;3211;53.452;-2.264;2023-05-18T11:05:23;18.90;1.00
6357;DHT22;3211;53.452;-2.264;2023-05-18T11:08:06;18.80;1.00
6357;DHT22;3211;53.452;-2.264;2023-05-18T11:10:48;18.90;1.00
6357;DHT22;3211;53.452;-2.264;2023-05-18T11:13:32;19.20;1.00
6357;DHT22;3211;53.452;-2.264;2023-05-18T11:16:14;19.00;1.00
6357;DHT22;3211;53.452;-2.264;2023-05-18T11:19:07;19.30;1.00
6357;DHT22;3211;53.452;-2.264;2023-05-18T11:21:52;19.30;1.00
6357;DHT22;3211;53.452;-2.264;2023-05-18T11:24:35;19.50;1.00
6357;DHT22;3211;53.452;-2.264;2023-05-18T11:27:17;19.50;1.00
6357;DHT22;3211;53.452;-2.264;2023-05-18T11:30:03;19.50;1.00
6357;DHT22;3211;53.452;-2.264;2023-05-18T11:32:49;19.40;1.00
6357;DHT22;3211;53.452;-2.264;2023-05-18T11:35:32;19.40;1.00
6357;DHT22;3211;53.452;-2.264;2023-05-18T11:38:14;19.40;1.00
6357;DHT22;3211;53.452;-2.264;2023-05-18T11:40:57;19.20;1.00
6357;DHT22;3211;53.452;-2.264;2023-05-18T11:43:40;19.40;1.00
6357;DHT22;3211;53.452;-2.264;2023-05-18T11:46:23;19.40;1.00
6357;DHT22;3211;53.452;-2.264;2023-05-18T11:49:06;19.40;1.00
6357;DHT22;3211;53.452;-2.264;2023-05-18T11:52:05;19.20;1.00
6357;DHT22;3211;53.452;-2.264;2023-05-18T11:54:50;19.20;1.00
6357;DHT22;3211;53.452;-2.264;2023-05-18T11:57:38;19.30;1.00
6357;DHT22;3211;53.452;-2.264;2023-05-18T12:00:20;19.60;1.00
6357;DHT22;3211;53.452;-2.264;2023-05-18T12:03:06;19.80;1.00
6357;DHT22;3211;53.452;-2.264;2023-05-18T12:05:49;19.80;1.00
6357;DHT22;3211;53.452;-2.264;2023-05-18T12:08:31;19.60;1.00
6357;DHT22;3211;53.452;-2.264;2023-05-18T12:11:14;19.60;1.00
6357;DHT22;3211;53.452;-2.264;2023-05-18T12:13:56;19.80;1.00
6357;DHT22;3211;53.452;-2.264;2023-05-18T12:16:39;19.80;1.00
6357;DHT22;3211;53.452;-2.264;2023-05-18T12:19:23;19.90;1.00
6357;DHT22;3211;53.452;-2.264;2023-05-18T12:22:07;19.90;1.00
6357;DHT22;3211;53.452;-2.264;2023-05-18T12:24:50;19.80;1.00
6357;DHT22;3211;53.452;-2.264;2023-05-18T12:27:36;19.40;1.00
6357;DHT22;3211;53.452;-2.264;2023-05-18T12:30:21;19.40;1.00
6357;DHT22;3211;53.452;-2.264;2023-05-18T12:33:03;19.80;1.00
6357;DHT22;3211;53.452;-2.264;2023-05-18T12:35:47;19.90;1.00
6357;DHT22;3211;53.452;-2.264;2023-05-18T12:38:29;19.80;1.00
6357;DHT22;3211;53.452;-2.264;2023-05-18T12:41:21;19.40;1.00
6357;DHT22;3211;53.452;-2.264;2023-05-18T12:44:03;19.40;1.00
6357;DHT22;3211;53.452;-2.264;2023-05-18T12:46:45;19.30;1.00
6357;DHT22;3211;53.452;-2.264;2023-05-18T12:49:35;19.40;1.00
6357;DHT22;3211;53.452;-2.264;2023-05-18T12:52:20;19.40;1.00
6357;DHT22;3211;53.452;-2.264;2023-05-18T12:55:02;19.40;1.00
6357;DHT22;3211;53.452;-2.264;2023-05-18T12:57:44;19.30;1.00
6357;DHT22;3211;53.452;-2.264;2023-05-18T13:00:30;19.20;1.00
6357;DHT22;3211;53.452;-2.264;2023-05-18T13:03:17;18.90;1.00
6357;DHT22;3211;53.452;-2.264;2023-05-18T13:06:05;18.70;1.00
6357;DHT22;3211;53.452;-2.264;2023-05-18T13:08:52;18.70;1.00
6357;DHT22;3211;53.452;-2.264;2023-05-18T13:11:35;18.70;1.00
6357;DHT22;3211;53.452;-2.264;2023-05-18T13:14:20;18.80;1.00
6357;DHT22;3211;53.452;-2.264;2023-05-18T13:17:03;18.80;1.00
6357;DHT22;3211;53.452;-2.264;2023-05-18T13:19:56;18.90;1.00
6357;DHT22;3211;53.452;-2.264;2023-05-18T13:22:38;18.80;1.00
6357;DHT22;3211;53.452;-2.264;2023-05-18T13:25:21;18.70;1.00
6357;DHT22;3211;53.452;-2.264;2023-05-18T13:28:04;18.60;1.00
6357;DHT22;3211;53.452;-2.264;2023-05-18T13:30:47;18.60;1.00
6357;DHT22;3211;53.452;-2.264;2023-05-18T13:33:32;18.80;1.00
6357;DHT22;3211;53.452;-2.264;2023-05-18T13:36:14;18.80;1.00
6357;DHT22;3211;53.452;-2.264;2023-05-18T13:38:56;18.90;1.00
6357;DHT22;3211;53.452;-2.264;2023-05-18T13:41:40;18.80;1.00
6357;DHT22;3211;53.452;-2.264;2023-05-18T13:44:22;18.90;1.00
6357;DHT22;3211;53.452;-2.264;2023-05-18T13:47:05;18.80;1.00
6357;DHT22;3211;53.452;-2.264;2023-05-18T13:49:47;18.90;1.00
6357;DHT22;3211;53.452;-2.264;2023-05-18T13:52:29;18.80;1.00
6357;DHT22;3211;53.452;-2.264;2023-05-18T13:55:11;18.80;1.00
6357;DHT22;3211;53.452;-2.264;2023-05-18T13:57:55;19.00;1.00
6357;DHT22;3211;53.452;-2.264;2023-05-18T14:00:37;19.00;1.00
6357;DHT22;3211;53.452;-2.264;2023-05-18T14:03:21;19.10;1.00
6357;DHT22;3211;53.452;-2.264;2023-05-18T14:06:04;19.30;1.00
6357;DHT22;3211;53.452;-2.264;2023-05-18T14:08:46;19.20;1.00
6357;DHT22;3211;53.452;-2.264;2023-05-18T14:11:28;19.20;1.00
6357;DHT22;3211;53.452;-2.264;2023-05-18T14:14:15;19.10;1.00
6357;DHT22;3211;53.452;-2.264;2023-05-18T14:16:57;18.90;1.00
6357;DHT22;3211;53.452;-2.264;2023-05-18T14:19:39;19.10;1.00
6357;DHT22;3211;53.452;-2.264;2023-05-18T14:22:21;19.10;1.00
6357;DHT22;3211;53.452;-2.264;2023-05-18T14:25:05;19.10;1.00
6357;DHT22;3211;53.452;-2.264;2023-05-18T14:27:47;19.10;1.00
6357;DHT22;3211;53.452;-2.264;2023-05-18T14:30:31;19.20;1.00
6357;DHT22;3211;53.452;-2.264;2023-05-18T14:33:13;19.00;1.00
6357;DHT22;3211;53.452;-2.264;2023-05-18T14:35:55;19.00;1.00
6357;DHT22;3211;53.452;-2.264;2023-05-18T14:38:43;19.20;1.00
6357;DHT22;3211;53.452;-2.264;2023-05-18T14:41:26;19.30;1.00
6357;DHT22;3211;53.452;-2.264;2023-05-18T14:44:08;19.10;1.00
6357;DHT22;3211;53.452;-2.264;2023-05-18T14:46:52;19.00;1.00
6357;DHT22;3211;53.452;-2.264;2023-05-18T14:49:34;19.00;1.00
6357;DHT22;3211;53.452;-2.264;2023-05-18T14:52:16;19.00;1.00
6357;DHT22;3211;53.452;-2.264;2023-05-18T14:54:59;19.00;1.00
6357;DHT22;3211;53.452;-2.264;2023-05-18T14:57:41;19.20;1.00
6357;DHT22;3211;53.452;-2.264;2023-05-18T15:00:24;19.00;1.00
6357;DHT22;3211;53.452;-2.264;2023-05-18T15:03:07;19.00;1.00
6357;DHT22;3211;53.452;-2.264;2023-05-18T15:05:49;19.00;1.00
6357;DHT22;3211;53.452;-2.264;2023-05-18T15:08:31;18.90;1.00
6357;DHT22;3211;53.452;-2.264;2023-05-18T15:11:13;19.10;1.00
6357;DHT22;3211;53.452;-2.264;2023-05-18T15:13:55;19.00;1.00
6357;DHT22;3211;53.452;-2.264;2023-05-18T15:16:37;18.80;1.00
6357;DHT22;3211;53.452;-2.264;2023-05-18T15:19:20;18.80;1.00
6357;DHT22;3211;53.452;-2.264;2023-05-18T15:22:03;18.80;1.00
6357;DHT22;3211;53.452;-2.264;2023-05-18T15:24:45;18.80;1.00
6357;DHT22;3211;53.452;-2.264;2023-05-18T15:27:27;18.80;1.00
6357;DHT22;3211;53.452;-2.264;2023-05-18T15:30:10;18.80;1.00
6357;DHT22;3211;53.452;-2.264;2023-05-18T15:32:52;18.80;1.00
6357;DHT22;3211;53.452;-2.264;2023-05-18T15:35:36;19.00;1.00
6357;DHT22;3211;53.452;-2.264;2023-05-18T15:38:19;18.60;1.00
6357;DHT22;3211;53.452;-2.264;2023-05-18T15:41:01;18.80;1.00
6357;DHT22;3211;53.452;-2.264;2023-05-18T15:43:43;18.80;1.00
6357;DHT22;3211;53.452;-2.264;2023-05-18T15:46:28;19.00;1.00
6357;DHT22;3211;53.452;-2.264;2023-05-18T15:49:11;19.00;1.00
6357;DHT22;3211;53.452;-2.264;2023-05-18T15:51:54;18.80;1.00
6357;DHT22;3211;53.452;-2.264;2023-05-18T15:54:36;18.90;1.00
6357;DHT22;3211;53.452;-2.264;2023-05-18T15:57:18;18.70;1.00
6357;DHT22;3211;53.452;-2.264;2023-05-18T16:00:01;18.60;1.00
6357;DHT22;3211;53.452;-2.264;2023-05-18T16:02:44;19.00;1.00
6357;DHT22;3211;53.452;-2.264;2023-05-18T16:05:25;19.10;1.00
6357;DHT22;3211;53.452;-2.264;2023-05-18T16:08:09;18.60;1.00
6357;DHT22;3211;53.452;-2.264;2023-05-18T16:10:51;18.50;1.00
6357;DHT22;3211;53.452;-2.264;2023-05-18T16:13:33;18.50;1.00
6357;DHT22;3211;53.452;-2.264;2023-05-18T16:16:23;18.60;1.00
6357;DHT22;3211;53.452;-2.264;2023-05-18T16:19:19;18.40;1.00
6357;DHT22;3211;53.452;-2.264;2023-05-18T16:22:15;18.30;1.00
6357;DHT22;3211;53.452;-2.264;2023-05-18T16:25:07;18.40;1.00
6357;DHT22;3211;53.452;-2.264;2023-05-18T16:27:58;18.20;1.00
6357;DHT22;3211;53.452;-2.264;2023-05-18T16:30:50;18.10;1.00
6357;DHT22;3211;53.452;-2.264;2023-05-18T16:34:05;18.20;1.00
6357;DHT22;3211;53.452;-2.264;2023-05-18T16:36:58;18.30;1.00
6357;DHT22;3211;53.452;-2.264;2023-05-18T16:39:50;18.40;1.00
6357;DHT22;3211;53.452;-2.264;2023-05-18T16:42:42;18.10;1.00
6357;DHT22;3211;53.452;-2.264;2023-05-18T16:45:32;18.10;1.00
6357;DHT22;3211;53.452;-2.264;2023-05-18T16:48:16;18.30;1.00
6357;DHT22;3211;53.452;-2.264;2023-05-18T16:51:16;18.30;1.00
6357;DHT22;3211;53.452;-2.264;2023-05-18T16:54:08;18.00;1.00
6357;DHT22;3211;53.452;-2.264;2023-05-18T16:57:07;17.90;1.00
6357;DHT22;3211;53.452;-2.264;2023-05-18T17:00:05;18.20;1.00
6357;DHT22;3211;53.452;-2.264;2023-05-18T17:02:52;18.30;1.00
6357;DHT22;3211;53.452;-2.264;2023-05-18T17:05:43;18.10;1.00
6357;DHT22;3211;53.452;-2.264;2023-05-18T17:08:41;18.00;1.00
6357;DHT22;3211;53.452;-2.264;2023-05-18T17:11:26;18.10;1.00
6357;DHT22;3211;53.452;-2.264;2023-05-18T17:14:14;17.90;1.00
6357;DHT22;3211;53.452;-2.264;2023-05-18T17:16:59;17.90;1.00
6357;DHT22;3211;53.452;-2.264;2023-05-18T17:19:51;17.80;1.00
6357;DHT22;3211;53.452;-2.264;2023-05-18T17:22:42;18.00;1.00
6357;DHT22;3211;53.452;-2.264;2023-05-18T17:25:32;17.80;1.00
6357;DHT22;3211;53.452;-2.264;2023-05-18T17:28:19;17.80;1.00
6357;DHT22;3211;53.452;-2.264;2023-05-18T17:31:11;17.80;1.00
6357;DHT22;3211;53.452;-2.264;2023-05-18T17:33:59;17.80;1.00
6357;DHT22;3211;53.452;-2.264;2023-05-18T17:36:53;17.70;1.00
6357;DHT22;3211;53.452;-2.264;2023-05-18T17:40:01;17.70;1.00
6357;DHT22;3211;53.452;-2.264;2023-05-18T17:42:52;17.90;1.00